sensor_id;sensor_type;location;lat;lon;timestamp;P1;durP1;ratioP1;P2;durP2;ratioP2
73684;SDS011;61985;51.070;14.064;2022-07-06T00:02:17;2.90;;;1.77;;
73684;SDS011;61985;51.070;14.064;2022-07-06T00:04:42;6.47;;;2.15;;
73684;SDS011;61985;51.070;14.064;2022-07-06T00:07:08;4.72;;;1.98;;
73684;SDS011;61985;51.070;14.064;2022-07-06T00:09:33;3.15;;;1.88;;
73684;SDS011;61985;51.070;14.064;2022-07-06T00:11:58;4.63;;;2.22;;
73684;SDS011;61985;51.070;14.064;2022-07-06T00:14:24;2.55;;;2.13;;
73684;SDS011;61985;51.070;14.064;2022-07-06T00:16:49;11.32;;;2.47;;
73684;SDS011;61985;51.070;14.064;2022-07-06T00:19:15;2.75;;;2.05;;
73684;SDS011;61985;51.070;14.064;2022-07-06T00:21:40;3.55;;;2.28;;
73684;SDS011;61985;51.070;14.064;2022-07-06T00:24:05;4.18;;;2.20;;
73684;SDS011;61985;51.070;14.064;2022-07-06T00:26:31;2.78;;;2.03;;
73684;SDS011;61985;51.070;14.064;2022-07-06T00:28:56;4.28;;;2.22;;
73684;SDS011;61985;51.070;14.064;2022-07-06T00:31:21;3.53;;;2.30;;
73684;SDS011;61985;51.070;14.064;2022-07-06T00:33:47;4.90;;;2.78;;
73684;SDS011;61985;51.070;14.064;2022-07-06T00:36:12;5.07;;;2.28;;
73684;SDS011;61985;51.070;14.064;2022-07-06T00:38:37;4.32;;;2.33;;
73684;SDS011;61985;51.070;14.064;2022-07-06T00:41:03;3.67;;;2.30;;
73684;SDS011;61985;51.070;14.064;2022-07-06T00:43:28;4.00;;;2.22;;
73684;SDS011;61985;51.070;14.064;2022-07-06T00:45:54;4.32;;;2.10;;
73684;SDS011;61985;51.070;14.064;2022-07-06T00:48:19;4.10;;;2.20;;
73684;SDS011;61985;51.070;14.064;2022-07-06T00:50:44;2.95;;;2.00;;
73684;SDS011;61985;51.070;14.064;2022-07-06T00:53:10;3.95;;;2.13;;
73684;SDS011;61985;51.070;14.064;2022-07-06T00:55:38;2.53;;;1.90;;
73684;SDS011;61985;51.070;14.064;2022-07-06T00:58:05;2.50;;;1.85;;
73684;SDS011;61985;51.070;14.064;2022-07-06T01:00:31;3.70;;;2.33;;
73684;SDS011;61985;51.070;14.064;2022-07-06T01:02:56;3.40;;;2.33;;
73684;SDS011;61985;51.070;14.064;2022-07-06T01:05:22;3.53;;;2.40;;
73684;SDS011;61985;51.070;14.064;2022-07-06T01:07:48;5.18;;;2.40;;
73684;SDS011;61985;51.070;14.064;2022-07-06T01:10:15;3.53;;;2.40;;
73684;SDS011;61985;51.070;14.064;2022-07-06T01:12:43;7.05;;;2.40;;
73684;SDS011;61985;51.070;14.064;2022-07-06T01:15:10;4.30;;;2.90;;
73684;SDS011;61985;51.070;14.064;2022-07-06T01:17:40;4.88;;;2.58;;
73684;SDS011;61985;51.070;14.064;2022-07-06T01:22:45;4.72;;;3.00;;
73684;SDS011;61985;51.070;14.064;2022-07-06T01:25:12;6.30;;;2.50;;
73684;SDS011;61985;51.070;14.064;2022-07-06T01:27:38;4.78;;;2.65;;
73684;SDS011;61985;51.070;14.064;2022-07-06T01:30:06;7.63;;;2.80;;
73684;SDS011;61985;51.070;14.064;2022-07-06T01:32:32;3.38;;;2.45;;
73684;SDS011;61985;51.070;14.064;2022-07-06T01:34:58;3.70;;;2.55;;
73684;SDS011;61985;51.070;14.064;2022-07-06T01:37:24;3.85;;;2.63;;
73684;SDS011;61985;51.070;14.064;2022-07-06T01:39:49;3.90;;;2.55;;
73684;SDS011;61985;51.070;14.064;2022-07-06T01:42:15;2.65;;;2.13;;
73684;SDS011;61985;51.070;14.064;2022-07-06T01:44:40;4.40;;;2.50;;
73684;SDS011;61985;51.070;14.064;2022-07-06T01:47:05;3.65;;;2.47;;
73684;SDS011;61985;51.070;14.064;2022-07-06T01:49:30;5.88;;;2.65;;
73684;SDS011;61985;51.070;14.064;2022-07-06T01:51:56;4.05;;;2.60;;
73684;SDS011;61985;51.070;14.064;2022-07-06T01:54:21;4.10;;;2.58;;
73684;SDS011;61985;51.070;14.064;2022-07-06T01:56:46;3.83;;;2.22;;
73684;SDS011;61985;51.070;14.064;2022-07-06T01:59:12;4.22;;;2.80;;
73684;SDS011;61985;51.070;14.064;2022-07-06T02:01:37;4.20;;;2.63;;
73684;SDS011;61985;51.070;14.064;2022-07-06T02:04:02;4.22;;;2.80;;
73684;SDS011;61985;51.070;14.064;2022-07-06T02:06:28;4.93;;;2.33;;
73684;SDS011;61985;51.070;14.064;2022-07-06T02:08:53;5.95;;;2.90;;
73684;SDS011;61985;51.070;14.064;2022-07-06T02:11:19;5.95;;;2.55;;
73684;SDS011;61985;51.070;14.064;2022-07-06T02:13:45;3.40;;;2.38;;
73684;SDS011;61985;51.070;14.064;2022-07-06T02:16:10;5.65;;;2.80;;
73684;SDS011;61985;51.070;14.064;2022-07-06T02:18:35;5.25;;;2.55;;
73684;SDS011;61985;51.070;14.064;2022-07-06T02:21:01;4.43;;;2.30;;
73684;SDS011;61985;51.070;14.064;2022-07-06T02:23:28;5.78;;;3.25;;
73684;SDS011;61985;51.070;14.064;2022-07-06T02:25:53;6.07;;;2.65;;
73684;SDS011;61985;51.070;14.064;2022-07-06T02:28:19;3.20;;;2.50;;
73684;SDS011;61985;51.070;14.064;2022-07-06T02:30:44;4.78;;;2.45;;
73684;SDS011;61985;51.070;14.064;2022-07-06T02:33:09;3.35;;;2.58;;
73684;SDS011;61985;51.070;14.064;2022-07-06T02:35:35;4.95;;;2.60;;
73684;SDS011;61985;51.070;14.064;2022-07-06T02:38:00;3.78;;;2.40;;
73684;SDS011;61985;51.070;14.064;2022-07-06T02:40:25;4.32;;;2.65;;
73684;SDS011;61985;51.070;14.064;2022-07-06T02:42:50;3.15;;;2.50;;
73684;SDS011;61985;51.070;14.064;2022-07-06T02:45:16;4.07;;;2.45;;
73684;SDS011;61985;51.070;14.064;2022-07-06T02:47:41;3.78;;;2.50;;
73684;SDS011;61985;51.070;14.064;2022-07-06T02:50:06;2.40;;;2.20;;
73684;SDS011;61985;51.070;14.064;2022-07-06T02:52:32;2.78;;;1.90;;
73684;SDS011;61985;51.070;14.064;2022-07-06T02:54:57;3.63;;;2.30;;
73684;SDS011;61985;51.070;14.064;2022-07-06T02:57:23;2.35;;;2.00;;
73684;SDS011;61985;51.070;14.064;2022-07-06T02:59:48;3.05;;;2.03;;
73684;SDS011;61985;51.070;14.064;2022-07-06T03:02:15;3.20;;;2.30;;
73684;SDS011;61985;51.070;14.064;2022-07-06T03:04:43;3.58;;;2.10;;
73684;SDS011;61985;51.070;14.064;2022-07-06T03:07:09;4.60;;;2.38;;
73684;SDS011;61985;51.070;14.064;2022-07-06T03:09:34;2.88;;;2.40;;
73684;SDS011;61985;51.070;14.064;2022-07-06T03:11:59;3.40;;;2.40;;
73684;SDS011;61985;51.070;14.064;2022-07-06T03:14:25;4.53;;;2.60;;
73684;SDS011;61985;51.070;14.064;2022-07-06T03:16:51;3.78;;;2.65;;
73684;SDS011;61985;51.070;14.064;2022-07-06T03:19:17;3.00;;;2.15;;
73684;SDS011;61985;51.070;14.064;2022-07-06T03:21:42;2.80;;;2.22;;
73684;SDS011;61985;51.070;14.064;2022-07-06T03:24:08;2.88;;;2.20;;
73684;SDS011;61985;51.070;14.064;2022-07-06T03:26:33;3.15;;;2.10;;
73684;SDS011;61985;51.070;14.064;2022-07-06T03:28:58;3.33;;;1.85;;
73684;SDS011;61985;51.070;14.064;2022-07-06T03:31:24;2.40;;;1.90;;
73684;SDS011;61985;51.070;14.064;2022-07-06T03:33:49;2.85;;;1.80;;
73684;SDS011;61985;51.070;14.064;2022-07-06T03:36:14;2.60;;;2.00;;
73684;SDS011;61985;51.070;14.064;2022-07-06T03:38:40;2.60;;;1.80;;
73684;SDS011;61985;51.070;14.064;2022-07-06T03:41:06;1.98;;;1.77;;
73684;SDS011;61985;51.070;14.064;2022-07-06T03:43:31;2.25;;;2.03;;
73684;SDS011;61985;51.070;14.064;2022-07-06T03:45:56;2.60;;;2.00;;
73684;SDS011;61985;51.070;14.064;2022-07-06T03:48:22;3.75;;;1.60;;
73684;SDS011;61985;51.070;14.064;2022-07-06T03:50:47;3.90;;;1.60;;
73684;SDS011;61985;51.070;14.064;2022-07-06T03:53:12;2.17;;;1.85;;
73684;SDS011;61985;51.070;14.064;2022-07-06T03:55:37;1.83;;;1.70;;
73684;SDS011;61985;51.070;14.064;2022-07-06T03:58:03;3.92;;;2.00;;
73684;SDS011;61985;51.070;14.064;2022-07-06T04:00:28;3.65;;;2.53;;
73684;SDS011;61985;51.070;14.064;2022-07-06T04:02:53;3.60;;;2.78;;
73684;SDS011;61985;51.070;14.064;2022-07-06T04:05:19;3.80;;;2.63;;
73684;SDS011;61985;51.070;14.064;2022-07-06T04:07:47;3.33;;;2.65;;
73684;SDS011;61985;51.070;14.064;2022-07-06T04:10:14;3.90;;;2.50;;
73684;SDS011;61985;51.070;14.064;2022-07-06T04:12:43;4.25;;;2.85;;
73684;SDS011;61985;51.070;14.064;2022-07-06T04:15:10;6.07;;;3.42;;
73684;SDS011;61985;51.070;14.064;2022-07-06T04:17:36;3.97;;;2.75;;
73684;SDS011;61985;51.070;14.064;2022-07-06T04:20:17;3.88;;;2.72;;
73684;SDS011;61985;51.070;14.064;2022-07-06T04:22:42;6.20;;;3.85;;
73684;SDS011;61985;51.070;14.064;2022-07-06T04:25:08;3.97;;;2.90;;
73684;SDS011;61985;51.070;14.064;2022-07-06T04:27:33;3.90;;;3.13;;
73684;SDS011;61985;51.070;14.064;2022-07-06T04:29:59;8.60;;;3.33;;
73684;SDS011;61985;51.070;14.064;2022-07-06T04:32:24;5.78;;;3.25;;
73684;SDS011;61985;51.070;14.064;2022-07-06T04:34:49;7.38;;;3.50;;
73684;SDS011;61985;51.070;14.064;2022-07-06T04:37:15;3.72;;;2.60;;
73684;SDS011;61985;51.070;14.064;2022-07-06T04:39:40;5.25;;;3.20;;
73684;SDS011;61985;51.070;14.064;2022-07-06T04:42:05;7.68;;;2.97;;
73684;SDS011;61985;51.070;14.064;2022-07-06T04:44:31;4.72;;;2.97;;
73684;SDS011;61985;51.070;14.064;2022-07-06T04:46:56;7.00;;;3.05;;
73684;SDS011;61985;51.070;14.064;2022-07-06T04:49:21;6.68;;;3.50;;
73684;SDS011;61985;51.070;14.064;2022-07-06T04:51:46;6.65;;;3.47;;
73684;SDS011;61985;51.070;14.064;2022-07-06T04:54:12;5.15;;;2.97;;
73684;SDS011;61985;51.070;14.064;2022-07-06T04:56:37;6.03;;;3.13;;
73684;SDS011;61985;51.070;14.064;2022-07-06T04:59:02;7.88;;;3.08;;
73684;SDS011;61985;51.070;14.064;2022-07-06T05:01:28;5.63;;;3.10;;
73684;SDS011;61985;51.070;14.064;2022-07-06T05:03:53;4.65;;;2.85;;
73684;SDS011;61985;51.070;14.064;2022-07-06T05:06:18;5.88;;;3.40;;
73684;SDS011;61985;51.070;14.064;2022-07-06T05:08:45;5.15;;;3.53;;
73684;SDS011;61985;51.070;14.064;2022-07-06T05:11:10;7.38;;;3.50;;
73684;SDS011;61985;51.070;14.064;2022-07-06T05:13:35;6.22;;;3.63;;
73684;SDS011;61985;51.070;14.064;2022-07-06T05:16:01;6.25;;;3.75;;
73684;SDS011;61985;51.070;14.064;2022-07-06T05:18:26;4.97;;;3.67;;
73684;SDS011;61985;51.070;14.064;2022-07-06T05:20:51;7.68;;;3.78;;
73684;SDS011;61985;51.070;14.064;2022-07-06T05:23:16;6.47;;;3.53;;
73684;SDS011;61985;51.070;14.064;2022-07-06T05:25:42;7.43;;;4.32;;
73684;SDS011;61985;51.070;14.064;2022-07-06T05:28:07;5.53;;;3.63;;
73684;SDS011;61985;51.070;14.064;2022-07-06T05:30:32;8.10;;;4.00;;
73684;SDS011;61985;51.070;14.064;2022-07-06T05:32:57;6.50;;;3.63;;
73684;SDS011;61985;51.070;14.064;2022-07-06T05:35:23;9.35;;;3.97;;
73684;SDS011;61985;51.070;14.064;2022-07-06T05:37:48;8.20;;;3.60;;
73684;SDS011;61985;51.070;14.064;2022-07-06T05:40:13;7.13;;;3.65;;
73684;SDS011;61985;51.070;14.064;2022-07-06T05:42:39;6.20;;;3.28;;
73684;SDS011;61985;51.070;14.064;2022-07-06T05:45:04;6.82;;;3.67;;
73684;SDS011;61985;51.070;14.064;2022-07-06T05:47:31;7.68;;;4.00;;
73684;SDS011;61985;51.070;14.064;2022-07-06T05:50:15;9.95;;;3.65;;
73684;SDS011;61985;51.070;14.064;2022-07-06T05:52:42;5.05;;;3.63;;
73684;SDS011;61985;51.070;14.064;2022-07-06T05:55:20;4.55;;;3.25;;
73684;SDS011;61985;51.070;14.064;2022-07-06T05:57:45;6.25;;;3.60;;
73684;SDS011;61985;51.070;14.064;2022-07-06T06:00:10;4.82;;;3.40;;
73684;SDS011;61985;51.070;14.064;2022-07-06T06:02:39;6.25;;;3.90;;
73684;SDS011;61985;51.070;14.064;2022-07-06T06:05:07;6.07;;;3.55;;
73684;SDS011;61985;51.070;14.064;2022-07-06T06:07:37;6.60;;;3.45;;
73684;SDS011;61985;51.070;14.064;2022-07-06T06:10:03;5.85;;;3.42;;
73684;SDS011;61985;51.070;14.064;2022-07-06T06:12:30;6.28;;;3.75;;
73684;SDS011;61985;51.070;14.064;2022-07-06T06:14:55;5.55;;;3.40;;
73684;SDS011;61985;51.070;14.064;2022-07-06T06:17:21;5.05;;;3.10;;
73684;SDS011;61985;51.070;14.064;2022-07-06T06:19:46;7.22;;;3.28;;
73684;SDS011;61985;51.070;14.064;2022-07-06T06:22:11;7.82;;;3.30;;
73684;SDS011;61985;51.070;14.064;2022-07-06T06:24:36;5.57;;;2.80;;
73684;SDS011;61985;51.070;14.064;2022-07-06T06:27:02;10.00;;;3.05;;
73684;SDS011;61985;51.070;14.064;2022-07-06T06:29:27;5.72;;;2.75;;
73684;SDS011;61985;51.070;14.064;2022-07-06T06:31:53;4.75;;;2.63;;
73684;SDS011;61985;51.070;14.064;2022-07-06T06:34:18;4.80;;;2.45;;
73684;SDS011;61985;51.070;14.064;2022-07-06T06:36:43;4.78;;;2.38;;
73684;SDS011;61985;51.070;14.064;2022-07-06T06:39:09;5.30;;;2.10;;
73684;SDS011;61985;51.070;14.064;2022-07-06T06:41:34;3.13;;;2.00;;
73684;SDS011;61985;51.070;14.064;2022-07-06T06:43:59;5.35;;;2.05;;
73684;SDS011;61985;51.070;14.064;2022-07-06T06:46:24;1.95;;;1.75;;
73684;SDS011;61985;51.070;14.064;2022-07-06T06:48:50;2.75;;;1.92;;
73684;SDS011;61985;51.070;14.064;2022-07-06T06:51:15;2.97;;;2.00;;
73684;SDS011;61985;51.070;14.064;2022-07-06T06:53:40;5.45;;;1.95;;
73684;SDS011;61985;51.070;14.064;2022-07-06T06:56:06;3.55;;;2.20;;
73684;SDS011;61985;51.070;14.064;2022-07-06T06:58:32;3.63;;;2.15;;
73684;SDS011;61985;51.070;14.064;2022-07-06T07:00:57;6.30;;;2.40;;
73684;SDS011;61985;51.070;14.064;2022-07-06T07:03:23;5.30;;;2.35;;
73684;SDS011;61985;51.070;14.064;2022-07-06T07:05:48;4.82;;;2.10;;
73684;SDS011;61985;51.070;14.064;2022-07-06T07:08:14;3.78;;;2.10;;
73684;SDS011;61985;51.070;14.064;2022-07-06T07:10:39;5.43;;;2.40;;
73684;SDS011;61985;51.070;14.064;2022-07-06T07:13:04;3.50;;;2.00;;
73684;SDS011;61985;51.070;14.064;2022-07-06T07:15:30;4.38;;;2.40;;
73684;SDS011;61985;51.070;14.064;2022-07-06T07:17:55;4.22;;;2.10;;
73684;SDS011;61985;51.070;14.064;2022-07-06T07:20:20;6.50;;;1.98;;
73684;SDS011;61985;51.070;14.064;2022-07-06T07:22:46;7.15;;;2.15;;
73684;SDS011;61985;51.070;14.064;2022-07-06T07:25:11;5.10;;;2.00;;
73684;SDS011;61985;51.070;14.064;2022-07-06T07:27:37;3.55;;;1.95;;
73684;SDS011;61985;51.070;14.064;2022-07-06T07:30:02;4.35;;;2.13;;
73684;SDS011;61985;51.070;14.064;2022-07-06T07:32:28;2.75;;;2.00;;
73684;SDS011;61985;51.070;14.064;2022-07-06T07:34:54;4.75;;;1.67;;
73684;SDS011;61985;51.070;14.064;2022-07-06T07:37:21;5.15;;;1.73;;
73684;SDS011;61985;51.070;14.064;2022-07-06T07:39:47;4.63;;;1.70;;
73684;SDS011;61985;51.070;14.064;2022-07-06T07:42:12;4.25;;;1.70;;
73684;SDS011;61985;51.070;14.064;2022-07-06T07:44:48;4.43;;;1.70;;
73684;SDS011;61985;51.070;14.064;2022-07-06T07:47:14;4.85;;;1.65;;
73684;SDS011;61985;51.070;14.064;2022-07-06T07:49:39;4.63;;;1.45;;
73684;SDS011;61985;51.070;14.064;2022-07-06T07:52:05;2.92;;;1.90;;
73684;SDS011;61985;51.070;14.064;2022-07-06T07:54:30;6.10;;;2.20;;
73684;SDS011;61985;51.070;14.064;2022-07-06T07:56:56;4.65;;;1.80;;
73684;SDS011;61985;51.070;14.064;2022-07-06T07:59:21;3.00;;;1.88;;
73684;SDS011;61985;51.070;14.064;2022-07-06T08:01:47;4.25;;;2.05;;
73684;SDS011;61985;51.070;14.064;2022-07-06T08:04:12;4.72;;;1.55;;
73684;SDS011;61985;51.070;14.064;2022-07-06T08:06:37;3.20;;;1.77;;
73684;SDS011;61985;51.070;14.064;2022-07-06T08:09:03;3.08;;;1.70;;
73684;SDS011;61985;51.070;14.064;2022-07-06T08:11:29;3.55;;;1.60;;
73684;SDS011;61985;51.070;14.064;2022-07-06T08:13:55;5.75;;;1.83;;
73684;SDS011;61985;51.070;14.064;2022-07-06T08:16:20;4.32;;;1.90;;
73684;SDS011;61985;51.070;14.064;2022-07-06T08:18:46;4.40;;;1.75;;
73684;SDS011;61985;51.070;14.064;2022-07-06T08:21:11;5.13;;;1.98;;
73684;SDS011;61985;51.070;14.064;2022-07-06T08:23:36;4.95;;;1.90;;
73684;SDS011;61985;51.070;14.064;2022-07-06T08:26:02;5.88;;;1.55;;
73684;SDS011;61985;51.070;14.064;2022-07-06T08:28:28;4.72;;;1.42;;
73684;SDS011;61985;51.070;14.064;2022-07-06T08:30:53;4.95;;;1.70;;
73684;SDS011;61985;51.070;14.064;2022-07-06T08:33:19;2.83;;;1.38;;
73684;SDS011;61985;51.070;14.064;2022-07-06T08:35:45;3.72;;;1.52;;
73684;SDS011;61985;51.070;14.064;2022-07-06T08:38:10;5.22;;;2.10;;
73684;SDS011;61985;51.070;14.064;2022-07-06T08:40:36;2.83;;;1.77;;
73684;SDS011;61985;51.070;14.064;2022-07-06T08:43:05;4.72;;;1.58;;
73684;SDS011;61985;51.070;14.064;2022-07-06T08:45:30;3.55;;;1.30;;
73684;SDS011;61985;51.070;14.064;2022-07-06T08:48:02;2.88;;;1.13;;
73684;SDS011;61985;51.070;14.064;2022-07-06T08:50:30;3.80;;;1.15;;
73684;SDS011;61985;51.070;14.064;2022-07-06T08:52:55;3.55;;;1.30;;
73684;SDS011;61985;51.070;14.064;2022-07-06T08:55:21;3.05;;;1.10;;
73684;SDS011;61985;51.070;14.064;2022-07-06T08:57:46;2.38;;;1.30;;
73684;SDS011;61985;51.070;14.064;2022-07-06T09:00:12;4.25;;;1.45;;
73684;SDS011;61985;51.070;14.064;2022-07-06T09:02:39;7.03;;;1.30;;
73684;SDS011;61985;51.070;14.064;2022-07-06T09:05:05;5.55;;;1.20;;
73684;SDS011;61985;51.070;14.064;2022-07-06T09:07:32;3.25;;;1.40;;
73684;SDS011;61985;51.070;14.064;2022-07-06T09:09:58;4.35;;;1.35;;
73684;SDS011;61985;51.070;14.064;2022-07-06T09:12:28;3.53;;;1.38;;
73684;SDS011;61985;51.070;14.064;2022-07-06T09:14:57;3.72;;;1.48;;
73684;SDS011;61985;51.070;14.064;2022-07-06T09:17:27;3.65;;;1.50;;
73684;SDS011;61985;51.070;14.064;2022-07-06T09:19:54;3.63;;;1.50;;
73684;SDS011;61985;51.070;14.064;2022-07-06T09:22:30;4.40;;;1.65;;
73684;SDS011;61985;51.070;14.064;2022-07-06T09:27:37;4.03;;;1.33;;
73684;SDS011;61985;51.070;14.064;2022-07-06T09:30:03;4.72;;;1.40;;
73684;SDS011;61985;51.070;14.064;2022-07-06T09:32:30;3.50;;;1.48;;
73684;SDS011;61985;51.070;14.064;2022-07-06T09:34:56;3.53;;;1.98;;
73684;SDS011;61985;51.070;14.064;2022-07-06T09:37:21;1.77;;;1.60;;
73684;SDS011;61985;51.070;14.064;2022-07-06T09:39:48;2.85;;;1.33;;
73684;SDS011;61985;51.070;14.064;2022-07-06T09:42:14;5.40;;;1.50;;
73684;SDS011;61985;51.070;14.064;2022-07-06T09:44:40;2.28;;;1.50;;
73684;SDS011;61985;51.070;14.064;2022-07-06T09:47:10;4.38;;;1.27;;
73684;SDS011;61985;51.070;14.064;2022-07-06T09:49:37;15.13;;;1.67;;
73684;SDS011;61985;51.070;14.064;2022-07-06T09:52:04;5.82;;;1.50;;
73684;SDS011;61985;51.070;14.064;2022-07-06T09:54:32;4.32;;;1.40;;
73684;SDS011;61985;51.070;14.064;2022-07-06T09:56:59;2.22;;;1.40;;
73684;SDS011;61985;51.070;14.064;2022-07-06T09:59:27;2.58;;;1.35;;
73684;SDS011;61985;51.070;14.064;2022-07-06T10:01:54;1.85;;;1.35;;
73684;SDS011;61985;51.070;14.064;2022-07-06T10:04:21;1.80;;;1.10;;
73684;SDS011;61985;51.070;14.064;2022-07-06T10:06:48;3.30;;;1.30;;
73684;SDS011;61985;51.070;14.064;2022-07-06T10:09:14;2.38;;;1.30;;
73684;SDS011;61985;51.070;14.064;2022-07-06T10:11:42;7.03;;;1.38;;
73684;SDS011;61985;51.070;14.064;2022-07-06T10:14:12;4.43;;;2.03;;
73684;SDS011;61985;51.070;14.064;2022-07-06T10:16:42;3.17;;;1.30;;
73684;SDS011;61985;51.070;14.064;2022-07-06T10:19:08;3.13;;;1.63;;
73684;SDS011;61985;51.070;14.064;2022-07-06T10:21:38;2.90;;;1.38;;
73684;SDS011;61985;51.070;14.064;2022-07-06T10:24:05;3.53;;;1.67;;
73684;SDS011;61985;51.070;14.064;2022-07-06T10:26:32;3.40;;;1.40;;
73684;SDS011;61985;51.070;14.064;2022-07-06T10:28:59;2.80;;;1.35;;
73684;SDS011;61985;51.070;14.064;2022-07-06T10:31:25;4.03;;;1.60;;
73684;SDS011;61985;51.070;14.064;2022-07-06T10:33:53;2.55;;;1.40;;
73684;SDS011;61985;51.070;14.064;2022-07-06T10:36:20;4.55;;;1.90;;
73684;SDS011;61985;51.070;14.064;2022-07-06T10:38:48;3.42;;;1.30;;
73684;SDS011;61985;51.070;14.064;2022-07-06T10:41:15;7.53;;;1.40;;
73684;SDS011;61985;51.070;14.064;2022-07-06T10:43:42;6.82;;;1.42;;
73684;SDS011;61985;51.070;14.064;2022-07-06T10:46:09;4.97;;;1.52;;
73684;SDS011;61985;51.070;14.064;2022-07-06T10:48:42;3.45;;;1.58;;
73684;SDS011;61985;51.070;14.064;2022-07-06T10:51:10;6.03;;;1.40;;
73684;SDS011;61985;51.070;14.064;2022-07-06T10:53:37;3.58;;;1.63;;
73684;SDS011;61985;51.070;14.064;2022-07-06T10:56:09;7.63;;;1.70;;
73684;SDS011;61985;51.070;14.064;2022-07-06T11:01:08;4.15;;;1.25;;
73684;SDS011;61985;51.070;14.064;2022-07-06T11:03:38;5.53;;;1.80;;
73684;SDS011;61985;51.070;14.064;2022-07-06T11:06:11;5.13;;;1.50;;
73684;SDS011;61985;51.070;14.064;2022-07-06T11:08:48;3.45;;;1.30;;
73684;SDS011;61985;51.070;14.064;2022-07-06T11:11:19;3.63;;;1.50;;
73684;SDS011;61985;51.070;14.064;2022-07-06T11:16:27;3.30;;;1.30;;
73684;SDS011;61985;51.070;14.064;2022-07-06T11:19:02;5.78;;;1.50;;
73684;SDS011;61985;51.070;14.064;2022-07-06T11:24:18;3.10;;;1.48;;
73684;SDS011;61985;51.070;14.064;2022-07-06T11:26:50;2.25;;;1.40;;
73684;SDS011;61985;51.070;14.064;2022-07-06T11:29:17;2.67;;;1.20;;
73684;SDS011;61985;51.070;14.064;2022-07-06T11:31:46;2.65;;;1.40;;
73684;SDS011;61985;51.070;14.064;2022-07-06T11:34:13;2.42;;;1.30;;
73684;SDS011;61985;51.070;14.064;2022-07-06T11:36:44;1.75;;;1.20;;
73684;SDS011;61985;51.070;14.064;2022-07-06T11:39:09;2.97;;;1.40;;
73684;SDS011;61985;51.070;14.064;2022-07-06T11:41:34;6.20;;;1.45;;
73684;SDS011;61985;51.070;14.064;2022-07-06T11:44:02;3.25;;;1.33;;
73684;SDS011;61985;51.070;14.064;2022-07-06T11:46:31;5.03;;;1.50;;
73684;SDS011;61985;51.070;14.064;2022-07-06T11:48:59;1.45;;;1.10;;
73684;SDS011;61985;51.070;14.064;2022-07-06T11:51:29;5.28;;;1.33;;
73684;SDS011;61985;51.070;14.064;2022-07-06T11:53:57;3.33;;;1.30;;
73684;SDS011;61985;51.070;14.064;2022-07-06T11:56:27;2.70;;;1.27;;
73684;SDS011;61985;51.070;14.064;2022-07-06T11:58:55;3.75;;;1.30;;
73684;SDS011;61985;51.070;14.064;2022-07-06T12:01:22;4.75;;;1.30;;
73684;SDS011;61985;51.070;14.064;2022-07-06T12:03:49;3.17;;;1.23;;
73684;SDS011;61985;51.070;14.064;2022-07-06T12:06:16;2.97;;;1.40;;
73684;SDS011;61985;51.070;14.064;2022-07-06T12:08:47;1.73;;;1.20;;
73684;SDS011;61985;51.070;14.064;2022-07-06T12:11:18;4.85;;;1.30;;
73684;SDS011;61985;51.070;14.064;2022-07-06T12:13:45;4.28;;;1.30;;
73684;SDS011;61985;51.070;14.064;2022-07-06T12:16:11;3.42;;;1.30;;
73684;SDS011;61985;51.070;14.064;2022-07-06T12:18:38;3.72;;;1.50;;
73684;SDS011;61985;51.070;14.064;2022-07-06T12:21:06;3.90;;;1.50;;
73684;SDS011;61985;51.070;14.064;2022-07-06T12:23:43;3.88;;;1.42;;
73684;SDS011;61985;51.070;14.064;2022-07-06T12:26:16;5.85;;;1.52;;
73684;SDS011;61985;51.070;14.064;2022-07-06T12:28:43;1.98;;;1.30;;
73684;SDS011;61985;51.070;14.064;2022-07-06T12:31:09;4.35;;;1.98;;
73684;SDS011;61985;51.070;14.064;2022-07-06T12:33:35;4.03;;;1.65;;
73684;SDS011;61985;51.070;14.064;2022-07-06T12:36:13;3.50;;;1.50;;
73684;SDS011;61985;51.070;14.064;2022-07-06T12:38:43;1.30;;;1.20;;
73684;SDS011;61985;51.070;14.064;2022-07-06T12:41:10;4.68;;;1.30;;
73684;SDS011;61985;51.070;14.064;2022-07-06T12:43:36;2.45;;;1.40;;
73684;SDS011;61985;51.070;14.064;2022-07-06T12:49:12;2.90;;;1.30;;
73684;SDS011;61985;51.070;14.064;2022-07-06T12:54:17;3.05;;;1.27;;
73684;SDS011;61985;51.070;14.064;2022-07-06T12:56:55;4.18;;;1.15;;
73684;SDS011;61985;51.070;14.064;2022-07-06T12:59:43;6.00;;;1.40;;
73684;SDS011;61985;51.070;14.064;2022-07-06T13:02:16;4.80;;;1.45;;
73684;SDS011;61985;51.070;14.064;2022-07-06T13:04:43;10.23;;;1.27;;
73684;SDS011;61985;51.070;14.064;2022-07-06T13:07:19;4.13;;;1.40;;
73684;SDS011;61985;51.070;14.064;2022-07-06T13:09:45;2.47;;;1.30;;
73684;SDS011;61985;51.070;14.064;2022-07-06T13:12:10;2.95;;;1.20;;
73684;SDS011;61985;51.070;14.064;2022-07-06T13:14:36;7.70;;;1.40;;
73684;SDS011;61985;51.070;14.064;2022-07-06T13:17:01;5.00;;;1.20;;
73684;SDS011;61985;51.070;14.064;2022-07-06T13:19:27;2.72;;;1.20;;
73684;SDS011;61985;51.070;14.064;2022-07-06T13:21:52;3.22;;;1.30;;
73684;SDS011;61985;51.070;14.064;2022-07-06T13:24:17;3.08;;;1.30;;
73684;SDS011;61985;51.070;14.064;2022-07-06T13:26:43;3.40;;;1.60;;
73684;SDS011;61985;51.070;14.064;2022-07-06T13:29:09;4.45;;;1.80;;
73684;SDS011;61985;51.070;14.064;2022-07-06T13:31:36;3.95;;;1.85;;
73684;SDS011;61985;51.070;14.064;2022-07-06T13:34:01;2.30;;;1.58;;
73684;SDS011;61985;51.070;14.064;2022-07-06T13:36:27;2.88;;;1.33;;
73684;SDS011;61985;51.070;14.064;2022-07-06T13:38:52;3.63;;;1.10;;
73684;SDS011;61985;51.070;14.064;2022-07-06T13:41:18;3.70;;;1.40;;
73684;SDS011;61985;51.070;14.064;2022-07-06T13:43:43;2.85;;;1.15;;
73684;SDS011;61985;51.070;14.064;2022-07-06T13:46:08;2.28;;;1.27;;
73684;SDS011;61985;51.070;14.064;2022-07-06T13:48:35;2.55;;;1.30;;
73684;SDS011;61985;51.070;14.064;2022-07-06T13:51:01;2.58;;;1.10;;
73684;SDS011;61985;51.070;14.064;2022-07-06T13:53:27;2.97;;;1.20;;
73684;SDS011;61985;51.070;14.064;2022-07-06T13:55:52;4.07;;;1.20;;
73684;SDS011;61985;51.070;14.064;2022-07-06T13:58:18;2.78;;;1.10;;
73684;SDS011;61985;51.070;14.064;2022-07-06T14:00:44;5.75;;;1.17;;
73684;SDS011;61985;51.070;14.064;2022-07-06T14:03:09;2.20;;;1.00;;
73684;SDS011;61985;51.070;14.064;2022-07-06T14:05:35;3.25;;;1.40;;
73684;SDS011;61985;51.070;14.064;2022-07-06T14:08:00;3.28;;;1.45;;
73684;SDS011;61985;51.070;14.064;2022-07-06T14:10:26;1.80;;;1.30;;
73684;SDS011;61985;51.070;14.064;2022-07-06T14:12:51;6.22;;;1.15;;
73684;SDS011;61985;51.070;14.064;2022-07-06T14:15:16;4.68;;;1.20;;
73684;SDS011;61985;51.070;14.064;2022-07-06T14:17:42;2.55;;;1.10;;
73684;SDS011;61985;51.070;14.064;2022-07-06T14:20:07;2.78;;;1.17;;
73684;SDS011;61985;51.070;14.064;2022-07-06T14:22:34;4.30;;;1.20;;
73684;SDS011;61985;51.070;14.064;2022-07-06T14:24:59;3.63;;;1.30;;
73684;SDS011;61985;51.070;14.064;2022-07-06T14:27:25;1.38;;;1.13;;
73684;SDS011;61985;51.070;14.064;2022-07-06T14:29:50;4.38;;;1.15;;
73684;SDS011;61985;51.070;14.064;2022-07-06T14:32:16;3.30;;;1.38;;
73684;SDS011;61985;51.070;14.064;2022-07-06T14:34:41;3.20;;;1.20;;
73684;SDS011;61985;51.070;14.064;2022-07-06T14:37:07;4.88;;;1.23;;
73684;SDS011;61985;51.070;14.064;2022-07-06T14:39:32;4.70;;;1.30;;
73684;SDS011;61985;51.070;14.064;2022-07-06T14:41:58;4.35;;;1.15;;
73684;SDS011;61985;51.070;14.064;2022-07-06T14:44:23;2.38;;;1.05;;
73684;SDS011;61985;51.070;14.064;2022-07-06T14:46:49;3.85;;;1.17;;
73684;SDS011;61985;51.070;14.064;2022-07-06T14:49:14;2.45;;;1.20;;